Aérodrome :
LOGIN :

S'inscrire | Disclaimer

   EN    FR    IT 

 










Légende :    VFR   VFR Marginal   IFR   IFR Intensif   IFR Très Intensif
Visi : 
Plafond : 
>= 8 km
>= 3000ft
5 à 8 km
1000 à 3000 ft
1500m à 5 km
500 à 1000 ft
800 à 1500m
200 à 500 ft
< 800m
< 200 ft
Symboles :   Orages  Brouillard  Fortes neiges  Fortes précipitations  Vent > 20 kt
SIGMETs :   Divers  Orages  Givrage  Turbulence  Onde Orograph.  Cendres Volcan.






- Altitude de l'aérodrome : -11 ft
- Code IATA : AMS


EHAM - Amsterdam Schiphol

DERNIER METAR :
  • 182155Z 22022KT 9999 -SHRA SCT016CB BKN025 BKN041 08/05 Q1011 TEMPO 6000 SHRA BECMG 27018KT

METARs EXPIRÉS :
  • 182125Z 21022KT 180V240 9999 -RA SCT016 BKN018 BKN040 08/05 Q1012 TEMPO 6000 SCT018 BKN025
  • 182055Z 22020KT 9999 SCT016 BKN018 BKN040 08/05 Q1013 TEMPO 6000 SCT018 BKN025
  • 182025Z 21020KT 9999 FEW016 SCT018 BKN023 08/05 Q1013 NOSIG
  • 181955Z 22019G29KT 9999 SCT018 BKN023 BKN045 08/05 Q1014 NOSIG
  • 181925Z 22022G32KT 190V250 9000 -RA FEW019 BKN023 BKN040 08/05 Q1014 NOSIG
  • 181855Z 23021G32KT 200V260 9999 -RA FEW020 BKN024 09/04 Q1015 NOSIG

TAF TAF EHAM
Valide du 18 à 18h jusqu'au 20 à 00h UTC


181713Z 1818/1924 22021G31KT 9999 SCT025 BKN040
BECMG 1820/1822 6000 -RA BKN018
TEMPO 1821/1824 24025G38KT 4000 SHRA RA BKN014 SCT018CB
BECMG 1822/1901 29017KT 9999 NSW SCT025
BECMG 1911/1914 26018KT
BECMG 1915/1918 23012KT
BECMG 1919/1922 6000 -RADZ BKN014
TEMPO 1921/1924 4000 RADZ BKN009



MET'MAP, la Météo Aéronautique d'un coup d'oeil ! - Copyright ORBIFLY Décembre 2007 - Disclaimer

ORBIFLY MET'MAP TEAM :

Programmation & Développement : Alexandra Zaïnal
Sur une idée originale de : Baudouin d'Aumeries
Assistance à la programmation : Marc-Olivier Méhu
Soutien technique & logistique : Manuel Goepfert

Contact : metmap@orbifly.com




SOURCES & CREDITS :

   NOAA